Time;durP1;ratioP1;P1;durP2;ratioP2;P2;SDS_P1;SDS_P2;PMS_P1;PMS_P2;Temp;Humidity;BMP_temperature;BMP_pressure;BME280_temperature;BME280_humidity;BME280_pressure;Samples;Min_cycle;Max_cycle;Signal;HPM_P1;HPM_P2
2021/03/22 00:00:45;;;;;;;58.50;34.60;;;;;;;;;;4327159;33;20241;-71
2021/03/22 00:03:12;;;;;;;51.63;29.07;;;;;;;;;;4327668;33;20249;-71
2021/03/22 00:05:38;;;;;;;54.13;28.63;;;;;;;;;;4317032;33;20341;-70
2021/03/22 00:08:06;;;;;;;40.93;26.00;;;;;;;;;;4334011;33;20293;-71
2021/03/22 00:10:34;;;;;;;42.13;24.90;;;;;;;;;;4326592;33;20211;-71
2021/03/22 00:13:01;;;;;;;38.20;24.03;;;;;;;;;;4327890;33;20239;-71
2021/03/22 00:15:29;;;;;;;42.10;26.37;;;;;;;;;;4328209;33;20223;-72
2021/03/22 00:17:55;;;;;;;31.27;19.03;;;;;;;;;;4328401;33;20354;-61
2021/03/22 00:20:22;;;;;;;31.20;21.13;;;;;;;;;;4319308;33;20553;-62
2021/03/22 00:22:47;;;;;;;29.90;19.70;;;;;;;;;;4329430;33;20246;-63
2021/03/22 00:25:13;;;;;;;27.40;17.63;;;;;;;;;;4314220;33;20662;-62
2021/03/22 00:27:39;;;;;;;35.40;22.63;;;;;;;;;;4334788;33;20278;-63
2021/03/22 00:30:10;;;;;;;29.07;18.33;;;;;;;;;;4325771;33;20685;-61
2021/03/22 00:32:35;;;;;;;35.10;21.30;;;;;;;;;;4318243;33;20388;-63
2021/03/22 00:35:01;;;;;;;37.93;23.20;;;;;;;;;;4334534;33;20239;-63
2021/03/22 00:37:27;;;;;;;38.57;21.43;;;;;;;;;;4328734;33;20341;-63
2021/03/22 00:39:53;;;;;;;30.90;20.20;;;;;;;;;;4324564;33;20230;-62
2021/03/22 00:42:19;;;;;;;33.50;21.87;;;;;;;;;;4330553;33;20298;-67
2021/03/22 00:44:44;;;;;;;32.87;17.37;;;;;;;;;;4312933;33;20734;-68
2021/03/22 00:47:10;;;;;;;28.00;17.00;;;;;;;;;;4332063;33;20342;-68
2021/03/22 00:49:35;;;;;;;29.13;15.63;;;;;;;;;;4327938;33;20344;-67
2021/03/22 00:52:01;;;;;;;25.13;13.37;;;;;;;;;;4331333;33;20270;-66
2021/03/22 00:54:27;;;;;;;19.53;12.77;;;;;;;;;;4311752;33;20231;-68
2021/03/22 00:56:52;;;;;;;19.07;12.37;;;;;;;;;;4330245;33;20211;-67
2021/03/22 00:59:18;;;;;;;27.53;13.83;;;;;;;;;;4331445;33;20535;-65
2021/03/22 01:01:44;;;;;;;20.10;10.97;;;;;;;;;;4328286;33;20241;-66
2021/03/22 01:04:10;;;;;;;17.07;11.53;;;;;;;;;;4327157;33;20661;-66
2021/03/22 01:06:36;;;;;;;17.83;10.80;;;;;;;;;;4328775;33;20361;-64
2021/03/22 01:09:03;;;;;;;18.33;10.40;;;;;;;;;;4333836;33;20286;-74
2021/03/22 01:11:29;;;;;;;14.10;8.97;;;;;;;;;;4328784;33;20727;-74
2021/03/22 01:13:57;;;;;;;13.23;8.17;;;;;;;;;;4330446;33;20227;-73
2021/03/22 01:16:32;;;;;;;27.60;12.83;;;;;;;;;;4332115;33;20599;-74
2021/03/22 01:18:59;;;;;;;23.90;13.47;;;;;;;;;;4319331;33;20264;-74
2021/03/22 01:21:42;;;;;;;29.17;14.23;;;;;;;;;;4320227;33;20380;-63
2021/03/22 01:24:10;;;;;;;24.57;15.03;;;;;;;;;;4329376;33;20294;-62
2021/03/22 01:26:36;;;;;;;22.77;11.90;;;;;;;;;;4329722;33;20328;-64
2021/03/22 01:29:15;;;;;;;22.33;12.33;;;;;;;;;;4336409;33;20375;-62
2021/03/22 01:31:42;;;;;;;17.63;10.90;;;;;;;;;;4330926;33;20640;-62
2021/03/22 01:34:07;;;;;;;17.33;9.33;;;;;;;;;;4330294;33;20655;-62
2021/03/22 01:36:34;;;;;;;21.03;10.43;;;;;;;;;;4331759;33;20216;-61
2021/03/22 01:39:10;;;;;;;16.27;8.80;;;;;;;;;;4336302;33;20273;-61
2021/03/22 01:42:13;;;;;;;17.53;9.50;;;;;;;;;;4330061;33;20317;-62
2021/03/22 01:44:44;;;;;;;12.03;7.47;;;;;;;;;;4316885;33;20262;-64
2021/03/22 01:47:17;;;;;;;13.37;7.80;;;;;;;;;;4334338;33;20514;-62
2021/03/22 01:49:50;;;;;;;14.87;8.17;;;;;;;;;;4317385;33;20344;-61
2021/03/22 01:52:17;;;;;;;15.00;7.27;;;;;;;;;;4333368;33;20304;-61
2021/03/22 01:54:44;;;;;;;12.90;7.83;;;;;;;;;;4314266;33;20318;-64
2021/03/22 01:57:25;;;;;;;14.57;8.60;;;;;;;;;;4333176;33;20341;-63
2021/03/22 01:59:52;;;;;;;14.77;9.10;;;;;;;;;;4329085;33;20316;-62
2021/03/22 02:02:19;;;;;;;15.47;9.33;;;;;;;;;;4329405;33;20233;-62
2021/03/22 02:04:44;;;;;;;16.63;9.77;;;;;;;;;;4311385;33;20257;-61
2021/03/22 02:07:10;;;;;;;15.13;9.87;;;;;;;;;;4317444;33;20649;-62
2021/03/22 02:09:36;;;;;;;15.33;8.63;;;;;;;;;;4313921;33;20222;-68
2021/03/22 02:12:01;;;;;;;16.43;10.73;;;;;;;;;;4318743;33;20286;-66
2021/03/22 02:14:27;;;;;;;15.37;7.70;;;;;;;;;;4313819;33;20261;-69
2021/03/22 02:17:08;;;;;;;14.00;8.67;;;;;;;;;;4315766;33;20631;-69
2021/03/22 02:19:58;;;;;;;12.93;8.90;;;;;;;;;;4312512;33;20258;-69
2021/03/22 02:23:01;;;;;;;12.17;8.57;;;;;;;;;;4317063;33;20247;-69
2021/03/22 02:25:41;;;;;;;12.77;8.10;;;;;;;;;;4313810;33;20243;-70
2021/03/22 02:28:12;;;;;;;19.50;10.70;;;;;;;;;;4319299;33;20290;-69
2021/03/22 02:31:01;;;;;;;23.77;12.67;;;;;;;;;;4317408;33;20431;-70
2021/03/22 02:33:47;;;;;;;17.33;10.33;;;;;;;;;;4309502;33;20665;-69
2021/03/22 02:36:34;;;;;;;12.97;8.50;;;;;;;;;;4317189;33;20211;-70
2021/03/22 02:39:03;;;;;;;16.63;9.43;;;;;;;;;;4320592;33;20228;-69
2021/03/22 02:41:40;;;;;;;16.40;9.07;;;;;;;;;;4317189;33;20305;-70
2021/03/22 02:44:34;;;;;;;13.33;7.63;;;;;;;;;;4314978;33;20695;-72
2021/03/22 02:47:04;;;;;;;13.87;7.90;;;;;;;;;;4317912;33;20753;-64
2021/03/22 02:49:34;;;;;;;11.20;7.00;;;;;;;;;;4318449;33;20701;-63
2021/03/22 02:52:18;;;;;;;14.27;7.07;;;;;;;;;;4318479;33;20227;-65
2021/03/22 02:55:04;;;;;;;12.80;8.27;;;;;;;;;;4313133;33;20211;-64
2021/03/22 02:57:41;;;;;;;17.00;8.80;;;;;;;;;;4320939;33;20216;-64
2021/03/22 03:00:30;;;;;;;12.47;8.00;;;;;;;;;;4315214;33;20231;-63
2021/03/22 03:02:59;;;;;;;12.80;8.07;;;;;;;;;;4292676;33;20294;-61
2021/03/22 03:05:29;;;;;;;9.93;7.17;;;;;;;;;;4322018;33;20610;-64
2021/03/22 03:07:56;;;;;;;10.00;7.37;;;;;;;;;;4322628;33;20329;-66
2021/03/22 03:10:22;;;;;;;9.43;5.73;;;;;;;;;;4329660;33;20236;-68
2021/03/22 03:12:47;;;;;;;11.33;6.83;;;;;;;;;;4330489;33;21407;-67
2021/03/22 03:15:14;;;;;;;13.27;7.50;;;;;;;;;;4329350;33;20289;-69
2021/03/22 03:17:39;;;;;;;12.40;8.00;;;;;;;;;;4329477;33;20293;-68
2021/03/22 03:20:09;;;;;;;13.17;7.50;;;;;;;;;;4318604;33;20298;-68
2021/03/22 03:22:37;;;;;;;11.60;7.70;;;;;;;;;;4318351;33;20311;-68
2021/03/22 03:25:04;;;;;;;12.60;5.97;;;;;;;;;;4328087;33;20629;-68
2021/03/22 03:27:29;;;;;;;11.37;7.27;;;;;;;;;;4335365;33;20563;-67
2021/03/22 03:29:55;;;;;;;15.03;8.07;;;;;;;;;;4327629;33;20405;-62
2021/03/22 03:32:21;;;;;;;12.57;8.37;;;;;;;;;;4332062;33;20322;-65
2021/03/22 03:34:47;;;;;;;13.03;7.93;;;;;;;;;;4319195;33;20422;-59
2021/03/22 03:37:13;;;;;;;13.13;7.63;;;;;;;;;;4332359;33;20274;-60
2021/03/22 03:39:39;;;;;;;9.20;5.67;;;;;;;;;;4315789;33;20231;-59
2021/03/22 03:42:06;;;;;;;12.03;6.97;;;;;;;;;;4330686;33;20235;-58
2021/03/22 03:44:32;;;;;;;13.07;7.67;;;;;;;;;;4328902;33;20257;-59
2021/03/22 03:46:58;;;;;;;16.27;8.60;;;;;;;;;;4332454;33;20282;-59
2021/03/22 03:49:24;;;;;;;12.23;9.17;;;;;;;;;;4328188;33;20286;-59
2021/03/22 03:51:51;;;;;;;15.80;9.80;;;;;;;;;;4314887;33;20242;-60
2021/03/22 03:54:17;;;;;;;17.60;11.70;;;;;;;;;;4313596;33;20304;-61
2021/03/22 03:56:42;;;;;;;24.30;14.30;;;;;;;;;;4317488;33;20752;-60
2021/03/22 03:59:08;;;;;;;18.97;11.13;;;;;;;;;;4323006;33;20286;-63
2021/03/22 04:01:35;;;;;;;20.70;11.87;;;;;;;;;;4327722;33;20284;-62
2021/03/22 04:04:01;;;;;;;18.70;10.63;;;;;;;;;;4326464;33;20211;-63
2021/03/22 04:06:28;;;;;;;12.30;7.37;;;;;;;;;;4330902;33;20337;-62
2021/03/22 04:08:56;;;;;;;9.73;5.67;;;;;;;;;;4310322;33;20302;-58
2021/03/22 04:11:28;;;;;;;8.60;5.90;;;;;;;;;;4330310;33;20236;-61
2021/03/22 04:13:54;;;;;;;15.60;8.00;;;;;;;;;;4326674;33;20297;-62
2021/03/22 04:16:21;;;;;;;11.03;8.07;;;;;;;;;;4326233;33;20673;-60
2021/03/22 04:18:47;;;;;;;13.93;9.67;;;;;;;;;;4312875;33;20396;-60
2021/03/22 04:21:16;;;;;;;13.83;11.10;;;;;;;;;;4330336;33;20211;-60
2021/03/22 04:23:44;;;;;;;11.53;9.83;;;;;;;;;;4314803;33;20305;-60
2021/03/22 04:26:11;;;;;;;12.90;7.47;;;;;;;;;;4330534;33;20200;-60
2021/03/22 04:28:37;;;;;;;10.63;7.57;;;;;;;;;;4334332;33;20354;-59
2021/03/22 04:31:03;;;;;;;13.00;8.50;;;;;;;;;;4316685;33;20652;-61
2021/03/22 04:33:29;;;;;;;11.63;9.73;;;;;;;;;;4314587;33;20655;-59
2021/03/22 04:35:55;;;;;;;21.43;14.17;;;;;;;;;;4330168;33;20257;-59
2021/03/22 04:38:20;;;;;;;22.63;12.57;;;;;;;;;;4334341;33;20740;-64
2021/03/22 04:40:46;;;;;;;14.67;10.97;;;;;;;;;;4324578;33;20211;-64
2021/03/22 04:43:13;;;;;;;11.93;9.90;;;;;;;;;;4327835;33;20286;-65
2021/03/22 04:45:38;;;;;;;15.33;9.97;;;;;;;;;;4316250;33;20223;-65
2021/03/22 04:48:04;;;;;;;16.77;10.57;;;;;;;;;;4336984;33;20624;-65
2021/03/22 04:50:30;;;;;;;18.80;12.83;;;;;;;;;;4326707;33;20218;-65
2021/03/22 04:52:57;;;;;;;14.30;10.87;;;;;;;;;;4315525;33;20309;-64
2021/03/22 04:55:24;;;;;;;19.50;11.97;;;;;;;;;;4327017;33;20231;-66
2021/03/22 04:57:51;;;;;;;17.07;12.07;;;;;;;;;;4337482;33;20219;-72
2021/03/22 05:00:29;;;;;;;17.10;12.60;;;;;;;;;;4317855;33;20591;-70
2021/03/22 05:02:55;;;;;;;23.43;12.83;;;;;;;;;;4331433;33;20215;-68
2021/03/22 05:05:22;;;;;;;16.93;11.70;;;;;;;;;;4328504;33;20238;-69
2021/03/22 05:07:48;;;;;;;14.93;9.80;;;;;;;;;;4333737;33;20215;-69
2021/03/22 05:10:20;;;;;;;12.20;9.20;;;;;;;;;;4323910;33;20639;-68
2021/03/22 05:12:45;;;;;;;23.33;10.33;;;;;;;;;;4330829;33;20324;-68
2021/03/22 05:15:11;;;;;;;10.10;7.70;;;;;;;;;;4317252;33;20227;-72
2021/03/22 05:17:37;;;;;;;17.23;10.53;;;;;;;;;;4331050;33;20286;-70
2021/03/22 05:20:05;;;;;;;13.13;10.07;;;;;;;;;;4323817;33;20214;-70
2021/03/22 05:22:31;;;;;;;21.17;12.07;;;;;;;;;;4333133;33;20269;-66
2021/03/22 05:24:56;;;;;;;16.03;10.77;;;;;;;;;;4327976;33;20346;-67
2021/03/22 05:27:22;;;;;;;18.57;12.03;;;;;;;;;;4319063;33;20306;-70
2021/03/22 05:29:47;;;;;;;17.53;12.53;;;;;;;;;;4322246;33;20756;-68
2021/03/22 05:32:46;;;;;;;14.90;10.70;;;;;;;;;;4333853;33;20289;-70
2021/03/22 05:35:17;;;;;;;19.13;13.13;;;;;;;;;;4305144;33;20238;-64
2021/03/22 05:37:44;;;;;;;21.50;13.77;;;;;;;;;;4336499;33;20222;-66
2021/03/22 05:40:18;;;;;;;21.43;13.37;;;;;;;;;;4324746;33;20237;-65
2021/03/22 05:42:53;;;;;;;19.73;12.77;;;;;;;;;;4332380;33;20215;-68
2021/03/22 05:45:19;;;;;;;26.13;16.00;;;;;;;;;;4328874;33;20211;-66
2021/03/22 05:47:50;;;;;;;32.73;17.60;;;;;;;;;;4336935;33;20320;-65
2021/03/22 05:50:20;;;;;;;27.03;18.87;;;;;;;;;;4328889;33;20842;-71
2021/03/22 05:53:03;;;;;;;28.63;19.17;;;;;;;;;;4339616;33;20281;-72
2021/03/22 05:55:38;;;;;;;29.97;20.07;;;;;;;;;;4321426;33;20231;-74
2021/03/22 05:58:18;;;;;;;29.40;20.97;;;;;;;;;;4334038;33;20312;-71
2021/03/22 06:00:52;;;;;;;30.13;19.57;;;;;;;;;;4326747;33;20233;-69
2021/03/22 06:03:30;;;;;;;31.33;18.30;;;;;;;;;;4329969;33;20556;-68
2021/03/22 06:06:09;;;;;;;40.33;22.03;;;;;;;;;;4331039;33;20346;-66
2021/03/22 06:08:59;;;;;;;32.73;20.03;;;;;;;;;;4336097;33;20582;-66
2021/03/22 06:11:43;;;;;;;36.40;21.03;;;;;;;;;;4313682;33;20541;-73
2021/03/22 06:14:27;;;;;;;32.87;19.60;;;;;;;;;;4329000;33;20258;-72
2021/03/22 06:17:04;;;;;;;31.70;19.37;;;;;;;;;;4321963;33;20234;-74
2021/03/22 06:19:33;;;;;;;32.33;21.53;;;;;;;;;;4328244;33;20649;-75
2021/03/22 06:21:59;;;;;;;41.73;23.17;;;;;;;;;;4319079;33;20253;-74
2021/03/22 06:24:28;;;;;;;37.07;20.80;;;;;;;;;;4328053;33;20242;-74
2021/03/22 06:26:56;;;;;;;36.70;20.70;;;;;;;;;;4317521;33;20231;-71
2021/03/22 06:29:30;;;;;;;35.63;19.70;;;;;;;;;;4331471;33;20211;-69
2021/03/22 06:32:06;;;;;;;37.33;27.60;;;;;;;;;;4335442;33;20800;-72
2021/03/22 06:34:59;;;;;;;49.03;34.07;;;;;;;;;;4312941;33;20243;-72
2021/03/22 06:37:28;;;;;;;34.93;26.70;;;;;;;;;;4338843;33;20258;-71
2021/03/22 06:40:16;;;;;;;26.03;19.87;;;;;;;;;;4317370;33;20367;-73
2021/03/22 06:42:44;;;;;;;28.63;19.53;;;;;;;;;;4322069;33;20227;-62
2021/03/22 06:45:31;;;;;;;57.37;31.10;;;;;;;;;;4335905;33;20233;-61
2021/03/22 06:48:36;;;;;;;36.67;22.10;;;;;;;;;;4335254;33;20959;-63
2021/03/22 06:51:04;;;;;;;39.93;21.63;;;;;;;;;;4329023;33;20557;-63
2021/03/22 06:53:55;;;;;;;28.27;19.00;;;;;;;;;;4324643;33;20690;-64
2021/03/22 06:56:25;;;;;;;22.83;17.03;;;;;;;;;;4324415;33;20278;-66
2021/03/22 06:59:11;;;;;;;19.43;15.10;;;;;;;;;;4322750;33;20313;-67
2021/03/22 07:01:38;;;;;;;17.53;13.53;;;;;;;;;;4319056;33;20286;-64
2021/03/22 07:04:23;;;;;;;27.87;16.87;;;;;;;;;;4333341;33;20235;-68
2021/03/22 07:07:13;;;;;;;61.57;29.57;;;;;;;;;;4320854;33;20445;-68
2021/03/22 07:10:16;;;;;;;53.70;30.50;;;;;;;;;;4330030;33;20278;-63
2021/03/22 07:12:41;;;;;;;83.73;48.93;;;;;;;;;;4327933;33;20227;-69
2021/03/22 07:15:24;;;;;;;60.97;43.60;;;;;;;;;;4327797;33;20750;-62
2021/03/22 07:18:14;;;;;;;37.57;24.53;;;;;;;;;;4315180;33;20235;-63
2021/03/22 07:20:42;;;;;;;39.03;28.60;;;;;;;;;;4315520;33;20322;-62
2021/03/22 07:23:23;;;;;;;35.43;25.80;;;;;;;;;;4333632;33;20243;-70
2021/03/22 07:25:54;;;;;;;50.57;30.30;;;;;;;;;;4320220;33;20234;-67
2021/03/22 07:28:42;;;;;;;40.10;23.37;;;;;;;;;;4327621;33;20284;-63
2021/03/22 07:31:21;;;;;;;52.07;33.83;;;;;;;;;;4324600;33;20211;-62
2021/03/22 07:34:07;;;;;;;46.03;29.77;;;;;;;;;;4329614;33;20231;-62
2021/03/22 07:36:46;;;;;;;42.87;27.53;;;;;;;;;;4329033;33;20203;-65
2021/03/22 07:39:22;;;;;;;100.37;58.87;;;;;;;;;;4328354;33;20254;-55
2021/03/22 07:42:08;;;;;;;52.70;33.73;;;;;;;;;;4333598;33;20615;-55
2021/03/22 07:45:02;;;;;;;246.97;134.23;;;;;;;;;;4314338;33;20247;-56
2021/03/22 07:47:53;;;;;;;34.37;24.30;;;;;;;;;;4327293;33;20301;-61
2021/03/22 07:50:34;;;;;;;33.50;20.57;;;;;;;;;;4313390;33;20625;-57
2021/03/22 07:53:13;;;;;;;30.57;19.03;;;;;;;;;;4327767;33;20216;-56
2021/03/22 07:55:48;;;;;;;30.07;17.40;;;;;;;;;;4329859;33;20309;-56
2021/03/22 07:58:24;;;;;;;27.83;19.10;;;;;;;;;;4323560;33;20739;-56
2021/03/22 08:01:06;;;;;;;27.37;20.07;;;;;;;;;;4312763;33;20597;-56
2021/03/22 08:03:59;;;;;;;24.30;17.40;;;;;;;;;;4321056;33;20238;-56
2021/03/22 08:07:01;;;;;;;27.63;20.03;;;;;;;;;;4324153;33;20664;-55
2021/03/22 08:09:42;;;;;;;31.83;24.40;;;;;;;;;;4316193;33;20215;-56
2021/03/22 08:12:39;;;;;;;81.37;41.77;;;;;;;;;;4325567;33;20869;-55
2021/03/22 08:15:31;;;;;;;28.97;16.83;;;;;;;;;;4314845;33;20298;-56
2021/03/22 08:18:17;;;;;;;122.97;65.60;;;;;;;;;;4322362;33;20259;-56
2021/03/22 08:21:27;;;;;;;37.03;21.97;;;;;;;;;;4317066;33;20236;-57
2021/03/22 08:24:37;;;;;;;33.20;19.80;;;;;;;;;;4284532;33;20646;-68
2021/03/22 08:27:11;;;;;;;35.67;24.40;;;;;;;;;;4303324;33;20243;-67
2021/03/22 08:29:41;;;;;;;35.27;23.53;;;;;;;;;;4315716;33;20220;-66
2021/03/22 08:32:45;;;;;;;41.00;23.97;;;;;;;;;;4305867;33;20743;-66
2021/03/22 08:35:20;;;;;;;501.87;258.83;;;;;;;;;;4292543;33;20333;-66
2021/03/22 08:37:56;;;;;;;55.60;35.70;;;;;;;;;;4309761;33;20349;-67
2021/03/22 08:40:53;;;;;;;61.83;33.73;;;;;;;;;;4310915;33;20285;-68
2021/03/22 08:43:49;;;;;;;45.20;25.70;;;;;;;;;;4321897;33;20194;-66
2021/03/22 08:46:18;;;;;;;40.07;22.43;;;;;;;;;;4320360;33;20368;-67
2021/03/22 08:48:44;;;;;;;40.27;23.40;;;;;;;;;;4306091;33;20259;-68
2021/03/22 08:51:23;;;;;;;31.13;21.73;;;;;;;;;;4317716;33;20241;-68
2021/03/22 08:53:51;;;;;;;23.20;15.53;;;;;;;;;;4308888;33;20254;-71
2021/03/22 08:56:38;;;;;;;27.20;18.00;;;;;;;;;;4312925;33;20341;-70
2021/03/22 08:59:17;;;;;;;22.50;15.13;;;;;;;;;;4302924;33;20238;-71
2021/03/22 09:01:43;;;;;;;12.37;9.27;;;;;;;;;;4314914;33;20227;-72
2021/03/22 09:04:32;;;;;;;11.70;8.43;;;;;;;;;;4302360;33;20281;-72
2021/03/22 09:07:09;;;;;;;12.73;8.30;;;;;;;;;;4303121;33;20254;-73
2021/03/22 09:09:39;;;;;;;17.47;12.70;;;;;;;;;;4313489;33;20297;-71
2021/03/22 09:12:26;;;;;;;17.43;13.20;;;;;;;;;;4305866;33;20246;-72
2021/03/22 09:14:53;;;;;;;25.40;13.97;;;;;;;;;;4301939;33;20519;-71
2021/03/22 09:17:24;;;;;;;14.93;11.30;;;;;;;;;;4307612;33;20369;-71
2021/03/22 09:20:13;;;;;;;16.23;12.33;;;;;;;;;;4320349;33;20311;-64
2021/03/22 09:22:48;;;;;;;16.97;11.67;;;;;;;;;;4301232;33;20251;-62
2021/03/22 09:25:48;;;;;;;20.13;13.47;;;;;;;;;;4318407;33;20210;-61
2021/03/22 09:28:26;;;;;;;22.07;14.50;;;;;;;;;;4316205;33;20303;-61
2021/03/22 09:31:04;;;;;;;25.80;14.93;;;;;;;;;;4311437;33;20310;-60
2021/03/22 09:33:57;;;;;;;21.63;14.93;;;;;;;;;;4314334;33;20298;-61
2021/03/22 09:36:32;;;;;;;15.17;10.37;;;;;;;;;;4317535;33;20214;-58
2021/03/22 09:39:14;;;;;;;16.83;13.00;;;;;;;;;;4322300;33;20254;-56
2021/03/22 09:41:58;;;;;;;12.40;8.63;;;;;;;;;;4321220;33;20302;-57
2021/03/22 09:44:28;;;;;;;19.60;12.83;;;;;;;;;;4307859;33;20227;-56
2021/03/22 09:47:19;;;;;;;15.17;10.67;;;;;;;;;;4292605;33;20219;-57
2021/03/22 09:50:05;;;;;;;18.40;10.87;;;;;;;;;;4311177;33;20292;-56
2021/03/22 09:52:39;;;;;;;22.80;15.10;;;;;;;;;;4296065;33;20236;-56
2021/03/22 09:55:30;;;;;;;11.30;8.30;;;;;;;;;;4297220;33;20236;-56
2021/03/22 09:57:58;;;;;;;19.93;12.23;;;;;;;;;;4290687;33;20309;-57
2021/03/22 10:00:54;;;;;;;21.20;12.47;;;;;;;;;;4320411;33;20214;-56
2021/03/22 10:03:36;;;;;;;25.33;16.07;;;;;;;;;;4310355;33;20231;-57
2021/03/22 10:06:24;;;;;;;17.03;10.77;;;;;;;;;;4307949;33;20347;-57
2021/03/22 10:08:54;;;;;;;13.53;9.00;;;;;;;;;;4325302;33;20298;-57
2021/03/22 10:11:24;;;;;;;16.27;10.30;;;;;;;;;;4313684;33;20317;-56
2021/03/22 10:13:51;;;;;;;22.40;13.13;;;;;;;;;;4317699;33;20219;-58
2021/03/22 10:16:17;;;;;;;26.13;15.53;;;;;;;;;;4318793;33;20657;-57
2021/03/22 10:18:49;;;;;;;20.73;12.23;;;;;;;;;;4326255;33;20263;-56
2021/03/22 10:21:20;;;;;;;12.80;9.20;;;;;;;;;;4316972;33;20223;-56
2021/03/22 10:23:54;;;;;;;15.77;9.40;;;;;;;;;;4315791;33;20382;-56
2021/03/22 10:26:36;;;;;;;19.77;12.03;;;;;;;;;;4317105;33;20219;-57
2021/03/22 10:29:12;;;;;;;22.33;16.53;;;;;;;;;;4312513;33;20341;-57
2021/03/22 10:31:39;;;;;;;31.03;18.70;;;;;;;;;;4306749;33;20680;-57
2021/03/22 10:34:04;;;;;;;21.07;16.93;;;;;;;;;;4318338;33;20223;-58
2021/03/22 10:36:36;;;;;;;22.67;14.77;;;;;;;;;;4320987;33;20727;-58
2021/03/22 10:39:04;;;;;;;16.47;11.47;;;;;;;;;;4317824;33;20220;-58
2021/03/22 10:41:40;;;;;;;15.57;9.27;;;;;;;;;;4313410;33;20273;-56
2021/03/22 10:44:14;;;;;;;6.77;5.30;;;;;;;;;;4323619;33;20274;-57
2021/03/22 10:46:40;;;;;;;3.20;2.87;;;;;;;;;;4317657;33;20249;-57
2021/03/22 10:49:35;;;;;;;8.73;5.10;;;;;;;;;;4319902;33;20379;-56
2021/03/22 10:52:01;;;;;;;7.37;5.03;;;;;;;;;;4306655;33;20247;-57
2021/03/22 10:54:45;;;;;;;6.73;4.47;;;;;;;;;;4305485;33;20262;-57
2021/03/22 10:57:29;;;;;;;9.17;4.87;;;;;;;;;;4300319;33;20258;-57
2021/03/22 10:59:58;;;;;;;12.17;7.70;;;;;;;;;;4295120;33;20232;-56
2021/03/22 11:02:33;;;;;;;21.40;14.37;;;;;;;;;;4298461;33;20239;-55
2021/03/22 11:05:08;;;;;;;20.37;13.30;;;;;;;;;;4317247;33;20885;-57
2021/03/22 11:07:34;;;;;;;20.07;12.27;;;;;;;;;;4323630;33;20302;-57
2021/03/22 11:10:16;;;;;;;35.93;24.97;;;;;;;;;;4320798;33;20656;-57
2021/03/22 11:12:43;;;;;;;25.77;15.50;;;;;;;;;;4310583;33;20579;-57
2021/03/22 11:15:16;;;;;;;26.17;17.90;;;;;;;;;;4325186;33;20314;-57
2021/03/22 11:17:43;;;;;;;26.17;16.63;;;;;;;;;;4325144;33;20215;-57
2021/03/22 11:20:10;;;;;;;27.60;17.70;;;;;;;;;;4323031;33;20234;-57
2021/03/22 11:22:38;;;;;;;23.63;13.90;;;;;;;;;;4323024;33;20353;-57
2021/03/22 11:25:30;;;;;;;17.33;11.83;;;;;;;;;;4327106;33;20625;-58
2021/03/22 11:28:00;;;;;;;24.97;14.83;;;;;;;;;;4316430;33;20353;-58
2021/03/22 11:30:35;;;;;;;14.63;11.80;;;;;;;;;;4327253;33;20274;-56
2021/03/22 11:33:09;;;;;;;18.73;11.23;;;;;;;;;;4319686;33;20688;-57
2021/03/22 11:35:35;;;;;;;36.33;23.53;;;;;;;;;;4325007;33;20241;-57
2021/03/22 11:38:03;;;;;;;33.67;20.40;;;;;;;;;;4339678;33;20338;-57
2021/03/22 11:40:34;;;;;;;44.83;29.53;;;;;;;;;;4329866;33;20230;-65
2021/03/22 11:43:22;;;;;;;29.20;21.30;;;;;;;;;;4335950;33;20536;-64
2021/03/22 11:45:47;;;;;;;21.87;15.00;;;;;;;;;;4329431;33;20215;-64
2021/03/22 11:48:22;;;;;;;22.80;14.93;;;;;;;;;;4317986;33;20371;-65
2021/03/22 11:50:53;;;;;;;19.07;12.53;;;;;;;;;;4331287;33;20277;-64
2021/03/22 11:53:24;;;;;;;29.47;19.10;;;;;;;;;;4336191;33;20302;-63
2021/03/22 11:55:51;;;;;;;13.13;8.43;;;;;;;;;;4330809;33;20277;-64
2021/03/22 11:58:30;;;;;;;9.37;7.57;;;;;;;;;;4325846;33;20294;-68
2021/03/22 12:01:30;;;;;;;23.47;15.17;;;;;;;;;;4325712;33;20428;-64
2021/03/22 12:04:14;;;;;;;18.83;13.40;;;;;;;;;;4321387;33;20344;-66
2021/03/22 12:07:12;;;;;;;16.00;11.70;;;;;;;;;;4332754;33;20309;-65
2021/03/22 12:09:42;;;;;;;12.83;8.80;;;;;;;;;;4290865;33;20235;-67
2021/03/22 12:12:14;;;;;;;15.97;10.17;;;;;;;;;;4330592;33;20249;-66
2021/03/22 12:14:40;;;;;;;8.73;6.87;;;;;;;;;;4325125;33;20235;-56
2021/03/22 12:17:24;;;;;;;10.83;6.23;;;;;;;;;;4326657;33;20530;-57
2021/03/22 12:19:50;;;;;;;13.60;9.10;;;;;;;;;;4322704;33;20235;-58
2021/03/22 12:22:19;;;;;;;9.27;6.93;;;;;;;;;;4324075;33;20241;-66
2021/03/22 12:24:44;;;;;;;7.13;4.60;;;;;;;;;;4326638;33;20219;-56
2021/03/22 12:27:15;;;;;;;9.90;7.60;;;;;;;;;;4323948;33;20772;-58
2021/03/22 12:29:42;;;;;;;6.30;4.77;;;;;;;;;;4319793;33;20250;-56
2021/03/22 12:32:14;;;;;;;19.90;10.63;;;;;;;;;;4313112;33;20381;-57
2021/03/22 12:34:40;;;;;;;20.17;10.60;;;;;;;;;;4324271;33;20235;-56
2021/03/22 12:37:06;;;;;;;27.90;14.23;;;;;;;;;;4312415;33;20352;-67
2021/03/22 12:39:35;;;;;;;22.23;14.07;;;;;;;;;;4324195;33;20577;-66
2021/03/22 12:42:09;;;;;;;21.93;13.50;;;;;;;;;;4322737;33;20325;-67
2021/03/22 12:44:35;;;;;;;19.57;10.60;;;;;;;;;;4324968;33;20211;-66
2021/03/22 12:47:01;;;;;;;22.17;11.00;;;;;;;;;;4302487;33;20601;-64
2021/03/22 12:49:27;;;;;;;15.37;11.43;;;;;;;;;;4326482;33;20597;-65
2021/03/22 12:51:53;;;;;;;17.97;11.87;;;;;;;;;;4327060;33;20325;-62
2021/03/22 12:54:19;;;;;;;27.00;16.30;;;;;;;;;;4332129;33;20595;-63
2021/03/22 12:56:44;;;;;;;38.97;20.60;;;;;;;;;;4322949;33;20515;-63
2021/03/22 12:59:40;;;;;;;26.07;14.73;;;;;;;;;;4326989;33;20301;-62
2021/03/22 13:02:21;;;;;;;15.27;10.03;;;;;;;;;;4324777;33;20273;-63
2021/03/22 13:04:47;;;;;;;12.23;9.20;;;;;;;;;;4301199;33;20251;-62
2021/03/22 13:07:13;;;;;;;14.03;9.57;;;;;;;;;;4302454;33;20333;-62
2021/03/22 13:09:40;;;;;;;6.83;4.63;;;;;;;;;;4316341;33;20294;-57
2021/03/22 13:12:29;;;;;;;8.07;5.63;;;;;;;;;;4314780;33;20317;-56
2021/03/22 13:14:56;;;;;;;18.37;7.40;;;;;;;;;;4311008;33;20243;-57
2021/03/22 13:17:32;;;;;;;20.07;10.70;;;;;;;;;;4313574;33;20317;-62
2021/03/22 13:19:58;;;;;;;8.20;4.60;;;;;;;;;;4307547;33;20235;-64
2021/03/22 13:22:25;;;;;;;5.37;4.07;;;;;;;;;;4296575;33;20313;-63
2021/03/22 13:24:53;;;;;;;3.77;3.20;;;;;;;;;;4289940;33;20546;-63
2021/03/22 13:27:21;;;;;;;9.97;7.67;;;;;;;;;;4314371;33;20554;-61
2021/03/22 13:29:46;;;;;;;8.40;6.20;;;;;;;;;;4300281;33;20385;-62
2021/03/22 13:32:12;;;;;;;7.77;4.47;;;;;;;;;;4325373;33;20389;-61
2021/03/22 13:34:39;;;;;;;13.13;8.03;;;;;;;;;;4299039;33;20232;-63
2021/03/22 13:37:07;;;;;;;12.47;8.20;;;;;;;;;;4312776;33;20656;-63
2021/03/22 13:39:34;;;;;;;13.33;10.00;;;;;;;;;;4314437;33;20227;-62
2021/03/22 13:41:59;;;;;;;13.00;9.23;;;;;;;;;;4313617;33;20307;-60
2021/03/22 13:44:26;;;;;;;13.03;8.17;;;;;;;;;;4314959;33;20338;-61
2021/03/22 13:46:52;;;;;;;11.97;8.60;;;;;;;;;;4313891;33;20326;-61
2021/03/22 13:49:17;;;;;;;14.80;9.30;;;;;;;;;;4312679;33;20215;-61
2021/03/22 13:51:43;;;;;;;10.10;5.80;;;;;;;;;;4313923;33;20218;-64
2021/03/22 13:54:18;;;;;;;12.37;8.30;;;;;;;;;;4302830;33;20738;-62
2021/03/22 13:56:46;;;;;;;13.17;7.00;;;;;;;;;;4311937;33;20298;-61
2021/03/22 13:59:38;;;;;;;14.03;9.90;;;;;;;;;;4312800;33;20293;-61
2021/03/22 14:02:06;;;;;;;15.50;9.37;;;;;;;;;;4311976;33;20591;-62
2021/03/22 14:04:32;;;;;;;10.20;6.77;;;;;;;;;;4303688;33;20624;-61
2021/03/22 14:06:58;;;;;;;14.57;9.53;;;;;;;;;;4324202;33;20315;-56
2021/03/22 14:09:24;;;;;;;40.73;23.57;;;;;;;;;;4315151;33;20219;-57
2021/03/22 14:11:54;;;;;;;56.37;32.90;;;;;;;;;;4316357;33;20215;-56
2021/03/22 14:14:19;;;;;;;53.40;26.90;;;;;;;;;;4314656;33;20673;-55
2021/03/22 14:16:45;;;;;;;72.17;37.43;;;;;;;;;;4314157;33;20294;-56
2021/03/22 14:19:11;;;;;;;23.27;16.00;;;;;;;;;;4323624;33;20282;-55
2021/03/22 14:21:37;;;;;;;31.43;17.80;;;;;;;;;;4322787;33;20302;-56
2021/03/22 14:24:03;;;;;;;57.03;27.90;;;;;;;;;;4316504;33;20215;-56
2021/03/22 14:26:29;;;;;;;19.73;12.57;;;;;;;;;;4323420;33;20207;-57
2021/03/22 14:28:55;;;;;;;15.33;10.37;;;;;;;;;;4291438;33;20285;-56
2021/03/22 14:31:24;;;;;;;16.13;11.20;;;;;;;;;;4295133;33;20238;-58
2021/03/22 14:33:52;;;;;;;11.53;6.97;;;;;;;;;;4308847;33;20243;-57
2021/03/22 14:36:19;;;;;;;9.07;6.17;;;;;;;;;;4316900;33;20219;-57
2021/03/22 14:38:44;;;;;;;22.97;12.80;;;;;;;;;;4314667;33;20242;-58
2021/03/22 14:41:10;;;;;;;39.50;18.60;;;;;;;;;;4318682;33;20243;-57
2021/03/22 14:43:36;;;;;;;23.97;13.47;;;;;;;;;;4306767;33;20314;-58
2021/03/22 14:46:01;;;;;;;15.87;10.70;;;;;;;;;;4319979;33;20343;-57
2021/03/22 14:48:27;;;;;;;45.50;28.10;;;;;;;;;;4318095;33;20238;-56
2021/03/22 14:50:53;;;;;;;19.27;11.87;;;;;;;;;;4319123;33;20215;-57
2021/03/22 14:53:18;;;;;;;27.97;15.77;;;;;;;;;;4298703;33;20357;-64
2021/03/22 14:55:44;;;;;;;25.47;15.87;;;;;;;;;;4319002;33;20527;-57